createdAt,value
2018-03-22T00:00:14.897Z,60.70
2018-03-22T00:02:44.473Z,60.90
2018-03-22T00:05:13.034Z,60.60
2018-03-22T00:07:44.399Z,59.90
2018-03-22T00:10:13.914Z,61.60
2018-03-22T00:12:42.449Z,60.80
2018-03-22T00:15:11.143Z,60.50
2018-03-22T00:17:39.732Z,61.10
2018-03-22T00:20:08.333Z,61.30
2018-03-22T00:22:43.527Z,59.90
2018-03-22T00:25:12.970Z,59.50
2018-03-22T00:27:42.898Z,59.90
2018-03-22T00:30:12.480Z,60.70
2018-03-22T00:32:41.049Z,60.70
2018-03-22T00:35:10.542Z,60.80
2018-03-22T00:37:40.923Z,60.80
2018-03-22T00:40:09.528Z,60.00
2018-03-22T00:42:38.101Z,60.60
2018-03-22T00:45:07.429Z,59.90
2018-03-22T00:47:36.651Z,61.50
2018-03-22T00:52:38.560Z,60.70
2018-03-22T00:55:07.128Z,62.00
2018-03-22T00:57:35.669Z,62.30
2018-03-22T01:00:04.371Z,60.70
2018-03-22T01:02:32.932Z,61.20
2018-03-22T01:05:01.496Z,60.80
2018-03-22T01:07:29.706Z,60.10
2018-03-22T01:09:58.264Z,59.40
2018-03-22T01:12:26.806Z,59.30
2018-03-22T01:14:55.129Z,61.00
2018-03-22T01:17:25.107Z,59.30
2018-03-22T01:19:56.710Z,61.50
2018-03-22T01:22:30.327Z,60.30
2018-03-22T01:24:58.912Z,63.10
2018-03-22T01:27:27.456Z,61.50
2018-03-22T01:29:56.075Z,59.70
2018-03-22T01:32:24.999Z,61.60
2018-03-22T01:34:55.018Z,59.70
2018-03-22T01:37:24.726Z,60.40
2018-03-22T01:39:54.146Z,59.80
2018-03-22T01:42:23.414Z,60.00
2018-03-22T01:44:51.951Z,60.50
2018-03-22T01:47:21.208Z,60.30
2018-03-22T01:49:53.209Z,60.30
2018-03-22T01:52:21.814Z,60.70
2018-03-22T01:54:50.365Z,60.10
2018-03-22T01:57:18.954Z,60.70
2018-03-22T01:59:47.509Z,61.60
2018-03-22T02:02:16.800Z,59.30
2018-03-22T02:04:45.351Z,59.60
2018-03-22T02:07:14.631Z,60.70
2018-03-22T02:09:43.138Z,61.60
2018-03-22T02:12:11.706Z,61.90
2018-03-22T02:14:40.241Z,60.70
2018-03-22T02:17:10.752Z,60.50
2018-03-22T02:19:38.683Z,60.50
2018-03-22T02:22:07.381Z,60.60
2018-03-22T02:24:36.025Z,61.00
2018-03-22T02:29:38.178Z,59.90
2018-03-22T02:32:06.693Z,60.70
2018-03-22T02:34:35.186Z,60.40
2018-03-22T02:37:04.222Z,61.30
2018-03-22T02:39:32.793Z,60.30
2018-03-22T02:42:01.378Z,60.80
2018-03-22T02:44:29.904Z,61.40
2018-03-22T02:46:58.413Z,62.00
2018-03-22T02:49:27.008Z,60.00
2018-03-22T02:51:55.628Z,60.10
2018-03-22T02:54:24.146Z,60.20
2018-03-22T02:56:57.573Z,60.30
2018-03-22T02:59:32.435Z,61.40
2018-03-22T03:02:01.016Z,59.80
2018-03-22T03:04:29.547Z,60.60
2018-03-22T03:06:58.084Z,62.40
2018-03-22T03:09:26.693Z,62.00
2018-03-22T03:11:55.223Z,61.30
2018-03-22T03:14:24.478Z,59.90
2018-03-22T03:16:53.021Z,60.70
2018-03-22T03:19:22.323Z,59.80
2018-03-22T03:21:51.640Z,60.60
2018-03-22T03:24:23.724Z,60.00
2018-03-22T03:26:56.016Z,61.00
2018-03-22T03:29:25.350Z,59.90
2018-03-22T03:31:55.271Z,60.80
2018-03-22T03:34:28.344Z,60.00
2018-03-22T03:36:56.864Z,60.20
2018-03-22T03:39:25.419Z,61.40
2018-03-22T03:41:55.071Z,58.40
2018-03-22T03:44:23.634Z,60.00
2018-03-22T03:46:52.936Z,60.00
2018-03-22T03:49:21.434Z,60.90
2018-03-22T03:51:50.198Z,61.40
2018-03-22T03:54:19.475Z,61.60
2018-03-22T03:56:48.696Z,61.60
2018-03-22T03:59:20.395Z,62.70
2018-03-22T04:01:49.426Z,61.40
2018-03-22T04:04:19.392Z,60.00
2018-03-22T04:06:50.743Z,60.70
2018-03-22T04:09:20.026Z,60.60
2018-03-22T04:11:49.387Z,61.30
2018-03-22T04:14:19.314Z,60.80
2018-03-22T04:16:49.017Z,62.20
2018-03-22T04:19:20.046Z,61.40
2018-03-22T04:21:49.826Z,61.10
2018-03-22T04:24:18.316Z,61.80
2018-03-22T04:26:46.853Z,61.00
2018-03-22T04:29:15.440Z,61.40
2018-03-22T04:31:43.968Z,62.50
2018-03-22T04:34:12.514Z,61.80
2018-03-22T04:36:41.791Z,60.90
2018-03-22T04:39:10.291Z,61.80
2018-03-22T04:41:38.965Z,61.60
2018-03-22T04:44:07.470Z,62.10
2018-03-22T04:46:36.718Z,60.60
2018-03-22T04:49:05.294Z,61.60
2018-03-22T04:51:36.361Z,61.70
2018-03-22T04:54:05.652Z,61.60
2018-03-22T04:56:34.155Z,62.70
2018-03-22T04:59:02.701Z,62.30
2018-03-22T05:01:31.190Z,62.50
2018-03-22T05:03:59.712Z,62.30
2018-03-22T05:06:28.300Z,60.30
2018-03-22T05:08:56.821Z,62.10
2018-03-22T05:11:25.185Z,62.40
2018-03-22T05:13:54.692Z,61.20
2018-03-22T05:16:23.247Z,60.50
2018-03-22T05:18:51.788Z,61.60
2018-03-22T05:21:21.557Z,60.70
2018-03-22T05:23:50.387Z,62.00
2018-03-22T05:26:19.614Z,61.90
2018-03-22T05:28:48.123Z,61.90
2018-03-22T05:31:16.670Z,62.40
2018-03-22T05:33:45.942Z,60.80
2018-03-22T05:36:14.447Z,61.60
2018-03-22T05:38:42.997Z,62.70
2018-03-22T05:41:11.364Z,62.30
2018-03-22T05:43:39.917Z,62.50
2018-03-22T05:46:09.186Z,60.60
2018-03-22T05:48:37.806Z,61.20
2018-03-22T05:51:06.306Z,63.70
2018-03-22T05:53:34.834Z,62.50
2018-03-22T05:56:03.356Z,62.60
2018-03-22T06:01:06.119Z,61.90
2018-03-22T06:03:35.405Z,62.50
2018-03-22T06:06:03.901Z,63.10
2018-03-22T06:08:32.449Z,63.10
2018-03-22T06:11:01.874Z,63.30
2018-03-22T06:13:31.308Z,61.90
2018-03-22T06:16:03.456Z,62.70
2018-03-22T06:18:33.570Z,62.30
2018-03-22T06:21:02.971Z,62.10
2018-03-22T06:23:32.283Z,63.60
2018-03-22T06:26:01.569Z,62.60
2018-03-22T06:28:31.336Z,63.10
2018-03-22T06:31:00.479Z,62.60
2018-03-22T06:33:29.171Z,63.40
2018-03-22T06:35:57.676Z,63.00
2018-03-22T06:38:29.045Z,62.70
2018-03-22T06:40:57.589Z,62.50
2018-03-22T06:43:26.143Z,63.20
2018-03-22T06:45:57.022Z,63.10
2018-03-22T06:48:25.701Z,62.70
2018-03-22T06:50:59.941Z,63.00
2018-03-22T06:53:28.524Z,63.90
2018-03-22T06:55:59.656Z,61.60
2018-03-22T07:01:04.544Z,63.40
2018-03-22T07:03:38.129Z,62.20
2018-03-22T07:06:17.244Z,63.50
2018-03-22T07:45:30.403Z,62.20
2018-03-22T07:47:59.577Z,59.10
2018-03-22T07:50:28.017Z,59.00
2018-03-22T07:52:56.434Z,59.30
2018-03-22T07:55:24.651Z,60.20
2018-03-22T07:57:52.864Z,61.30
2018-03-22T08:00:21.642Z,60.70
2018-03-22T08:02:49.963Z,60.80
2018-03-22T08:05:19.227Z,60.40
2018-03-22T08:07:48.967Z,60.50
2018-03-22T08:10:18.153Z,60.60
2018-03-22T08:12:46.548Z,60.60
2018-03-22T08:15:15.733Z,61.10
2018-03-22T08:17:45.064Z,60.90
2018-03-22T08:20:13.474Z,60.90
2018-03-22T08:22:41.920Z,60.30
2018-03-22T08:25:10.316Z,60.00
2018-03-22T08:27:38.737Z,60.20
2018-03-22T08:30:06.832Z,60.50
2018-03-22T08:32:36.016Z,60.00
2018-03-22T08:35:04.324Z,60.00
2018-03-22T08:37:32.694Z,60.00
2018-03-22T08:40:01.097Z,60.00
2018-03-22T08:42:29.533Z,60.60
2018-03-22T08:44:58.720Z,59.80
2018-03-22T08:47:27.894Z,59.80
2018-03-22T08:49:56.301Z,59.80
2018-03-22T08:52:25.490Z,59.70
2018-03-22T08:54:53.890Z,59.70
2018-03-22T08:57:22.510Z,60.00
2018-03-22T08:59:51.178Z,60.00
2018-03-22T09:02:19.680Z,59.70
2018-03-22T09:04:48.106Z,60.00
2018-03-22T09:10:11.088Z,60.00
2018-03-22T09:15:43.292Z,59.70
2018-03-22T09:18:17.079Z,59.80
2018-03-22T09:20:47.569Z,60.00
2018-03-22T09:23:16.824Z,59.50
2018-03-22T09:25:45.338Z,60.20
2018-03-22T09:28:14.452Z,60.00
2018-03-22T09:30:42.948Z,61.10
2018-03-22T09:33:30.579Z,59.80
2018-03-22T09:35:59.971Z,59.50
2018-03-22T09:38:30.973Z,60.10
2018-03-22T09:41:00.591Z,60.10
2018-03-22T09:43:39.755Z,61.30
2018-03-22T09:46:07.957Z,61.30
2018-03-22T09:49:03.476Z,60.30
2018-03-22T09:51:32.046Z,60.40
2018-03-22T09:54:01.295Z,59.00
2018-03-22T09:56:29.815Z,59.50
2018-03-22T09:58:59.012Z,59.60
2018-03-22T10:01:27.480Z,60.00
2018-03-22T10:03:56.075Z,59.00
2018-03-22T10:06:29.542Z,58.50
2018-03-22T10:09:01.896Z,59.90
2018-03-22T10:11:35.906Z,57.60
2018-03-22T10:14:04.419Z,58.80
2018-03-22T10:16:40.121Z,58.30
2018-03-22T10:19:09.707Z,59.00
2018-03-22T10:21:39.691Z,58.90
2018-03-22T10:24:13.247Z,57.50
2018-03-22T10:26:41.770Z,58.00
2018-03-22T10:29:15.915Z,58.30
2018-03-22T10:31:49.426Z,57.80
2018-03-22T10:34:22.661Z,59.00
2018-03-22T10:37:01.018Z,58.70
2018-03-22T10:42:08.506Z,56.60
2018-03-22T10:44:38.623Z,58.10
2018-03-22T10:47:08.332Z,57.60
2018-03-22T10:52:15.254Z,57.70
2018-03-22T10:54:55.636Z,57.60
2018-03-22T10:57:30.810Z,57.20
2018-03-22T11:03:22.231Z,57.50
2018-03-22T11:05:51.413Z,57.00
2018-03-22T11:08:19.803Z,56.90
2018-03-22T11:10:48.029Z,57.00
2018-03-22T11:13:16.417Z,56.30
2018-03-22T11:15:44.802Z,57.10
2018-03-22T11:18:13.221Z,57.20
2018-03-22T11:20:42.390Z,57.70
2018-03-22T11:23:10.791Z,57.60
2018-03-22T11:25:39.974Z,58.20
2018-03-22T11:28:09.038Z,58.20
2018-03-22T11:30:37.956Z,57.90
2018-03-22T11:33:06.702Z,56.60
2018-03-22T11:35:35.097Z,58.20
2018-03-22T11:38:03.513Z,57.00
2018-03-22T11:40:31.901Z,57.30
2018-03-22T11:43:01.081Z,57.20
2018-03-22T11:45:29.479Z,57.20
2018-03-22T11:47:58.678Z,57.00
2018-03-22T11:50:27.252Z,57.00
2018-03-22T11:53:02.586Z,57.50
2018-03-22T11:56:09.931Z,57.70
2018-03-22T11:59:04.702Z,57.70
2018-03-22T12:02:21.832Z,57.30
2018-03-22T12:05:10.720Z,57.40
2018-03-22T12:07:42.792Z,58.20
2018-03-22T12:10:12.177Z,58.50
2018-03-22T12:12:41.482Z,58.20
2018-03-22T12:18:04.223Z,57.50
2018-03-22T12:20:37.061Z,58.20
2018-03-22T12:23:05.760Z,57.80
2018-03-22T12:25:36.252Z,58.00
2018-03-22T12:28:05.356Z,58.70
2018-03-22T12:30:34.926Z,58.10
2018-03-22T12:33:05.640Z,58.60
2018-03-22T12:35:34.080Z,58.40
2018-03-22T12:38:02.590Z,58.70
2018-03-22T12:40:31.139Z,59.00
2018-03-22T12:43:03.884Z,59.50
2018-03-22T12:45:33.324Z,59.70
2018-03-22T12:48:01.866Z,60.10
2018-03-22T12:50:30.504Z,59.90
2018-03-22T12:52:59.047Z,60.50
2018-03-22T12:55:28.306Z,61.40
2018-03-22T12:57:57.997Z,62.00
2018-03-22T13:00:27.605Z,63.10
2018-03-22T13:05:30.895Z,65.00
2018-03-22T13:07:59.466Z,65.30
2018-03-22T13:10:28.687Z,66.80
2018-03-22T13:12:58.049Z,68.90
2018-03-22T13:18:21.381Z,68.80
2018-03-22T13:20:49.915Z,68.90
2018-03-22T13:23:20.015Z,70.00
2018-03-22T13:25:48.520Z,70.90
2018-03-22T13:28:19.165Z,70.60
2018-03-22T13:30:47.943Z,69.80
2018-03-22T13:33:16.493Z,70.70
2018-03-22T13:35:48.816Z,70.70
2018-03-22T13:38:23.784Z,71.10
2018-03-22T13:40:52.375Z,71.20
2018-03-22T13:43:21.376Z,71.80
2018-03-22T13:45:51.249Z,71.20
2018-03-22T13:48:24.912Z,72.00
2018-03-22T13:50:55.522Z,71.40
2018-03-22T13:53:25.316Z,72.70
2018-03-22T13:55:53.785Z,72.10
2018-03-22T13:58:23.141Z,69.70
2018-03-22T14:00:52.742Z,71.00
2018-03-22T14:03:21.251Z,72.20
2018-03-22T14:05:50.580Z,72.20
2018-03-22T14:08:21.928Z,72.20
2018-03-22T14:10:50.408Z,73.00
2018-03-22T14:13:20.146Z,71.50
2018-03-22T14:15:48.626Z,72.20
2018-03-22T14:18:18.628Z,71.40
2018-03-22T14:20:49.378Z,72.20
2018-03-22T14:23:17.889Z,71.70
2018-03-22T14:25:49.521Z,72.70
2018-03-22T14:28:20.099Z,71.20
2018-03-22T14:30:49.839Z,73.00
2018-03-22T14:33:18.937Z,72.40
2018-03-22T14:35:47.472Z,72.00
2018-03-22T14:38:38.242Z,71.90
2018-03-22T14:41:08.376Z,72.70
2018-03-22T14:43:36.933Z,73.10
2018-03-22T14:46:05.493Z,72.40
2018-03-22T14:48:34.627Z,72.60
2018-03-22T14:51:04.029Z,73.70
2018-03-22T14:53:35.238Z,73.50
2018-03-22T14:56:03.921Z,73.80
2018-03-22T14:58:36.381Z,73.50
2018-03-22T15:01:09.076Z,73.80
2018-03-22T15:03:38.351Z,73.70
2018-03-22T15:06:09.460Z,74.50
2018-03-22T15:08:38.593Z,74.80
2018-03-22T15:11:08.166Z,75.20
2018-03-22T15:13:39.009Z,75.70
2018-03-22T15:16:09.948Z,75.50
2018-03-22T15:18:40.011Z,74.40
2018-03-22T15:21:09.346Z,73.90
2018-03-22T15:23:37.967Z,74.70
2018-03-22T15:26:06.559Z,75.80
2018-03-22T15:28:38.712Z,75.20
2018-03-22T15:31:07.246Z,75.70
2018-03-22T15:36:30.114Z,74.20
2018-03-22T15:39:00.262Z,73.90
2018-03-22T15:41:28.748Z,74.40
2018-03-22T15:43:57.295Z,74.40
2018-03-22T15:46:27.132Z,76.30
2018-03-22T15:48:59.481Z,76.30
2018-03-22T15:51:33.493Z,74.20
2018-03-22T15:54:02.030Z,74.40
2018-03-22T15:56:30.599Z,74.40
2018-03-22T15:58:59.092Z,74.20
2018-03-22T16:01:28.341Z,73.40
2018-03-22T16:03:56.949Z,74.10
2018-03-22T16:06:26.269Z,73.40
2018-03-22T16:08:57.787Z,74.20
2018-03-22T16:11:26.309Z,74.30
2018-03-22T16:13:57.916Z,74.30
2018-03-22T16:16:26.421Z,74.90
2018-03-22T16:18:55.707Z,74.60
2018-03-22T16:21:25.137Z,74.40
2018-03-22T16:23:54.647Z,75.20
2018-03-22T16:26:24.852Z,75.30
2018-03-22T16:28:54.164Z,73.90
2018-03-22T16:31:22.684Z,74.40
2018-03-22T16:33:52.028Z,73.80
2018-03-22T16:36:20.433Z,73.80
2018-03-22T16:38:48.861Z,75.30
2018-03-22T16:41:17.267Z,73.90
2018-03-22T16:43:45.670Z,74.30
2018-03-22T16:46:14.092Z,73.80
2018-03-22T16:48:43.577Z,74.10
2018-03-22T16:51:12.449Z,73.90
2018-03-22T16:53:40.886Z,75.80
2018-03-22T16:56:10.183Z,74.60
2018-03-22T16:58:39.269Z,75.10
2018-03-22T17:01:08.172Z,74.90
2018-03-22T17:03:36.801Z,75.00
2018-03-22T17:06:05.650Z,74.80
2018-03-22T17:08:34.038Z,74.80
2018-03-22T17:11:03.200Z,74.90
2018-03-22T17:13:31.612Z,74.90
2018-03-22T17:16:00.800Z,73.50
2018-03-22T17:18:29.216Z,73.40
2018-03-22T17:20:57.626Z,74.70
2018-03-22T17:23:26.032Z,74.00
2018-03-22T17:25:54.439Z,73.80
2018-03-22T17:28:32.559Z,74.20
2018-03-22T17:31:01.158Z,74.20
2018-03-22T17:33:29.551Z,74.10
2018-03-22T17:35:57.957Z,74.50
2018-03-22T17:38:26.390Z,74.50
2018-03-22T17:40:54.973Z,74.60
2018-03-22T17:43:23.373Z,75.10
2018-03-22T17:45:51.464Z,75.10
2018-03-22T17:48:19.890Z,75.20
2018-03-22T17:50:48.288Z,75.10
2018-03-22T17:53:16.687Z,74.90
2018-03-22T17:55:45.105Z,76.60
2018-03-22T17:58:13.518Z,76.20
2018-03-22T18:00:41.942Z,76.10
2018-03-22T18:03:10.928Z,75.10
2018-03-22T18:05:40.109Z,75.60
2018-03-22T18:08:09.105Z,75.50
2018-03-22T18:10:39.493Z,76.20
2018-03-22T18:13:10.745Z,76.60
2018-03-22T18:15:40.671Z,75.90
2018-03-22T18:18:09.183Z,76.80
2018-03-22T18:20:38.691Z,76.20
2018-03-22T18:23:07.399Z,76.30
2018-03-22T18:25:35.965Z,76.50
2018-03-22T18:28:04.508Z,77.90
2018-03-22T18:30:34.928Z,76.50
2018-03-22T18:33:05.041Z,76.70
2018-03-22T18:35:33.547Z,76.90
2018-03-22T18:38:02.071Z,76.80
2018-03-22T18:40:36.198Z,76.60
2018-03-22T18:43:08.370Z,76.90
2018-03-22T18:45:36.874Z,77.40
2018-03-22T18:48:07.076Z,76.70
2018-03-22T18:50:36.686Z,76.10
2018-03-22T18:53:07.413Z,77.50
2018-03-22T18:55:39.091Z,76.70
2018-03-22T19:00:43.331Z,76.60
2018-03-22T19:03:12.652Z,76.10
2018-03-22T19:05:41.957Z,75.60
2018-03-22T19:08:11.254Z,76.00
2018-03-22T19:10:39.799Z,76.60
2018-03-22T19:13:11.391Z,76.60
2018-03-22T19:15:41.154Z,77.80
2018-03-22T19:18:16.454Z,77.20
2018-03-22T19:20:44.987Z,76.80
2018-03-22T19:25:48.826Z,78.10
2018-03-22T19:28:17.451Z,77.80
2018-03-22T19:30:49.329Z,77.90
2018-03-22T19:33:17.813Z,77.90
2018-03-22T19:35:46.341Z,77.70
2018-03-22T19:38:15.784Z,77.70
2018-03-22T19:40:48.311Z,77.20
2018-03-22T19:43:18.949Z,79.00
2018-03-22T19:45:48.280Z,79.60
2018-03-22T19:48:16.819Z,79.80
2018-03-22T19:50:46.091Z,77.70
2018-03-22T19:53:14.581Z,78.20
2018-03-22T19:55:45.019Z,78.60
2018-03-22T19:58:13.558Z,78.40
2018-03-22T20:00:44.178Z,79.80
2018-03-22T20:03:12.704Z,79.40
2018-03-22T20:05:41.242Z,78.30
2018-03-22T20:08:09.889Z,80.10
2018-03-22T20:10:39.716Z,78.20
2018-03-22T20:13:10.168Z,78.40
2018-03-22T20:15:39.124Z,77.80
2018-03-22T20:18:09.504Z,78.50
2018-03-22T20:23:31.347Z,78.40
2018-03-22T20:26:00.608Z,78.60
2018-03-22T20:28:33.178Z,79.10
2018-03-22T20:31:04.789Z,77.70
2018-03-22T20:33:33.273Z,78.60
2018-03-22T20:36:02.664Z,77.40
2018-03-22T20:38:54.313Z,83.80
2018-03-22T20:41:23.612Z,79.30
2018-03-22T20:43:52.138Z,79.40
2018-03-22T20:46:23.138Z,79.70
2018-03-22T20:48:51.678Z,78.70
2018-03-22T20:51:22.667Z,80.60
2018-03-22T20:53:51.215Z,81.20
2018-03-22T20:56:20.493Z,80.70
2018-03-22T20:58:49.088Z,81.30
2018-03-22T21:01:17.386Z,79.60
2018-03-22T21:03:50.741Z,78.60
2018-03-22T21:06:19.309Z,79.60
2018-03-22T21:08:47.851Z,79.00
2018-03-22T21:11:17.600Z,80.60
2018-03-22T21:13:53.223Z,81.70
2018-03-22T21:16:22.267Z,81.90
2018-03-22T21:18:52.126Z,81.60
2018-03-22T21:21:21.288Z,81.30
2018-03-22T21:23:49.816Z,81.70
2018-03-22T21:26:20.024Z,81.20
2018-03-22T21:28:48.632Z,81.40
2018-03-22T21:31:18.178Z,80.60
2018-03-22T21:33:46.782Z,80.90
2018-03-22T21:36:19.297Z,80.90
2018-03-22T21:38:56.131Z,81.50
2018-03-22T21:44:13.881Z,78.70
2018-03-22T21:46:43.128Z,79.40
2018-03-22T21:49:11.621Z,80.10
2018-03-22T21:51:39.841Z,80.10
2018-03-22T21:54:08.627Z,80.50
2018-03-22T21:56:37.938Z,78.70
2018-03-22T21:59:06.526Z,79.70
2018-03-22T22:01:35.143Z,80.40
2018-03-22T22:04:04.223Z,81.10
2018-03-22T22:06:32.779Z,80.80
2018-03-22T22:09:01.306Z,81.40
2018-03-22T22:11:31.663Z,82.00
2018-03-22T22:14:00.126Z,80.40
2018-03-22T22:16:29.489Z,79.00
2018-03-22T22:18:57.985Z,79.70
2018-03-22T22:21:27.573Z,79.10
2018-03-22T22:23:56.082Z,81.40
2018-03-22T22:26:25.030Z,81.70
2018-03-22T22:28:54.315Z,82.20
2018-03-22T22:31:22.821Z,83.10
2018-03-22T22:33:51.785Z,81.50
2018-03-22T22:36:20.133Z,82.30
2018-03-22T22:38:48.443Z,81.00
2018-03-22T22:41:17.800Z,81.30
2018-03-22T22:43:47.150Z,80.90
2018-03-22T22:46:15.658Z,81.10
2018-03-22T22:48:44.151Z,80.40
2018-03-22T22:51:14.519Z,80.30
2018-03-22T22:53:42.998Z,80.50
2018-03-22T22:56:16.725Z,79.60
2018-03-22T22:58:46.005Z,79.90
2018-03-22T23:01:14.355Z,80.30
2018-03-22T23:03:42.875Z,81.50
2018-03-22T23:06:18.300Z,80.20
2018-03-22T23:08:46.788Z,80.50
2018-03-22T23:13:50.390Z,81.90
2018-03-22T23:16:18.887Z,80.30
2018-03-22T23:18:48.973Z,80.40
2018-03-22T23:21:18.252Z,80.70
2018-03-22T23:23:46.737Z,81.30
2018-03-22T23:26:15.049Z,80.90
2018-03-22T23:28:43.606Z,81.20
2018-03-22T23:31:12.273Z,81.20
2018-03-22T23:33:40.782Z,81.00
2018-03-22T23:36:09.045Z,81.40
2018-03-22T23:38:38.308Z,80.00
2018-03-22T23:41:06.814Z,80.60
2018-03-22T23:43:36.116Z,80.90
2018-03-22T23:46:04.280Z,81.40
2018-03-22T23:48:32.793Z,80.70
2018-03-22T23:51:01.345Z,80.90
2018-03-22T23:53:30.751Z,80.70
2018-03-22T23:55:59.272Z,81.90
2018-03-22T23:58:29.314Z,81.30
